sensor_id;sensor_type;location;lat;lon;timestamp;P1;durP1;ratioP1;P2;durP2;ratioP2
34585;SDS011;20816;50.950;11.108;2022-12-18T00:01:26;0.27;;;0.27;;
34585;SDS011;20816;50.950;11.108;2022-12-18T00:03:55;2.30;;;0.30;;
34585;SDS011;20816;50.950;11.108;2022-12-18T00:06:23;0.50;;;0.50;;
34585;SDS011;20816;50.950;11.108;2022-12-18T00:08:50;0.87;;;0.87;;
34585;SDS011;20816;50.950;11.108;2022-12-18T00:11:18;0.47;;;0.47;;
34585;SDS011;20816;50.950;11.108;2022-12-18T00:13:47;0.93;;;0.80;;
34585;SDS011;20816;50.950;11.108;2022-12-18T00:16:17;0.73;;;0.70;;
34585;SDS011;20816;50.950;11.108;2022-12-18T00:18:51;2.20;;;2.00;;
34585;SDS011;20816;50.950;11.108;2022-12-18T00:21:20;0.30;;;0.30;;
34585;SDS011;20816;50.950;11.108;2022-12-18T00:23:47;2.27;;;0.50;;
34585;SDS011;20816;50.950;11.108;2022-12-18T00:26:33;0.47;;;0.40;;
34585;SDS011;20816;50.950;11.108;2022-12-18T00:29:01;0.43;;;0.43;;
34585;SDS011;20816;50.950;11.108;2022-12-18T00:31:31;0.33;;;0.30;;
34585;SDS011;20816;50.950;11.108;2022-12-18T00:33:58;0.30;;;0.30;;
34585;SDS011;20816;50.950;11.108;2022-12-18T00:36:26;0.30;;;0.30;;
34585;SDS011;20816;50.950;11.108;2022-12-18T00:38:55;0.20;;;0.20;;
34585;SDS011;20816;50.950;11.108;2022-12-18T00:41:25;1.30;;;0.90;;
34585;SDS011;20816;50.950;11.108;2022-12-18T00:44:11;0.87;;;0.87;;
34585;SDS011;20816;50.950;11.108;2022-12-18T00:46:40;1.10;;;0.70;;
34585;SDS011;20816;50.950;11.108;2022-12-18T00:49:08;0.43;;;0.43;;
34585;SDS011;20816;50.950;11.108;2022-12-18T00:51:34;0.30;;;0.30;;
34585;SDS011;20816;50.950;11.108;2022-12-18T00:54:01;0.43;;;0.43;;
34585;SDS011;20816;50.950;11.108;2022-12-18T00:56:28;0.13;;;0.13;;
34585;SDS011;20816;50.950;11.108;2022-12-18T00:58:55;0.40;;;0.30;;
34585;SDS011;20816;50.950;11.108;2022-12-18T01:01:22;0.40;;;0.40;;
34585;SDS011;20816;50.950;11.108;2022-12-18T01:03:49;0.23;;;0.20;;
34585;SDS011;20816;50.950;11.108;2022-12-18T01:06:16;9.83;;;1.47;;
34585;SDS011;20816;50.950;11.108;2022-12-18T01:08:42;1.50;;;0.20;;
34585;SDS011;20816;50.950;11.108;2022-12-18T01:11:11;0.27;;;0.27;;
34585;SDS011;20816;50.950;11.108;2022-12-18T01:13:40;0.53;;;0.53;;
34585;SDS011;20816;50.950;11.108;2022-12-18T01:16:08;3.77;;;0.43;;
34585;SDS011;20816;50.950;11.108;2022-12-18T01:18:37;0.60;;;0.20;;
34585;SDS011;20816;50.950;11.108;2022-12-18T01:21:07;0.83;;;0.83;;
34585;SDS011;20816;50.950;11.108;2022-12-18T01:23:36;0.57;;;0.57;;
34585;SDS011;20816;50.950;11.108;2022-12-18T01:26:05;2.53;;;1.03;;
34585;SDS011;20816;50.950;11.108;2022-12-18T01:28:37;3.40;;;1.03;;
34585;SDS011;20816;50.950;11.108;2022-12-18T01:31:12;0.60;;;0.60;;
34585;SDS011;20816;50.950;11.108;2022-12-18T01:33:40;0.53;;;0.23;;
34585;SDS011;20816;50.950;11.108;2022-12-18T01:36:08;1.53;;;1.30;;
34585;SDS011;20816;50.950;11.108;2022-12-18T01:38:40;0.90;;;0.50;;
34585;SDS011;20816;50.950;11.108;2022-12-18T01:41:07;0.77;;;0.77;;
34585;SDS011;20816;50.950;11.108;2022-12-18T01:46:09;1.50;;;1.30;;
34585;SDS011;20816;50.950;11.108;2022-12-18T01:48:36;0.73;;;0.73;;
34585;SDS011;20816;50.950;11.108;2022-12-18T01:51:04;2.10;;;0.53;;
34585;SDS011;20816;50.950;11.108;2022-12-18T01:53:32;0.30;;;0.30;;
34585;SDS011;20816;50.950;11.108;2022-12-18T01:55:59;1.27;;;0.70;;
34585;SDS011;20816;50.950;11.108;2022-12-18T02:00:58;1.30;;;0.33;;
34585;SDS011;20816;50.950;11.108;2022-12-18T02:03:25;0.10;;;0.10;;
34585;SDS011;20816;50.950;11.108;2022-12-18T02:09:01;0.30;;;0.30;;
34585;SDS011;20816;50.950;11.108;2022-12-18T02:11:50;0.10;;;0.10;;
34585;SDS011;20816;50.950;11.108;2022-12-18T02:14:58;0.10;;;0.10;;
34585;SDS011;20816;50.950;11.108;2022-12-18T02:17:31;1.50;;;0.83;;
34585;SDS011;20816;50.950;11.108;2022-12-18T02:28:42;0.40;;;0.40;;
34585;SDS011;20816;50.950;11.108;2022-12-18T02:31:14;0.20;;;0.20;;
34585;SDS011;20816;50.950;11.108;2022-12-18T02:33:47;0.93;;;0.83;;
34585;SDS011;20816;50.950;11.108;2022-12-18T02:36:16;0.13;;;0.13;;
34585;SDS011;20816;50.950;11.108;2022-12-18T02:38:45;1.00;;;1.00;;
34585;SDS011;20816;50.950;11.108;2022-12-18T02:41:13;3.80;;;1.00;;
34585;SDS011;20816;50.950;11.108;2022-12-18T02:43:46;2.07;;;0.93;;
34585;SDS011;20816;50.950;11.108;2022-12-18T02:57:36;0.10;;;0.10;;
34585;SDS011;20816;50.950;11.108;2022-12-18T03:00:14;0.43;;;0.43;;
34585;SDS011;20816;50.950;11.108;2022-12-18T03:08:29;1.53;;;0.67;;
34585;SDS011;20816;50.950;11.108;2022-12-18T03:11:02;0.13;;;0.13;;
34585;SDS011;20816;50.950;11.108;2022-12-18T03:16:19;0.13;;;0.13;;
34585;SDS011;20816;50.950;11.108;2022-12-18T03:18:59;1.17;;;1.07;;
34585;SDS011;20816;50.950;11.108;2022-12-18T03:21:32;1.83;;;0.70;;
34585;SDS011;20816;50.950;11.108;2022-12-18T03:24:07;0.17;;;0.17;;
34585;SDS011;20816;50.950;11.108;2022-12-18T03:26:35;0.37;;;0.37;;
34585;SDS011;20816;50.950;11.108;2022-12-18T03:29:08;0.37;;;0.37;;
34585;SDS011;20816;50.950;11.108;2022-12-18T03:31:40;0.27;;;0.27;;
34585;SDS011;20816;50.950;11.108;2022-12-18T03:34:14;0.37;;;0.37;;
34585;SDS011;20816;50.950;11.108;2022-12-18T03:36:47;0.83;;;0.63;;
34585;SDS011;20816;50.950;11.108;2022-12-18T03:39:13;1.23;;;1.13;;
34585;SDS011;20816;50.950;11.108;2022-12-18T03:44:14;0.43;;;0.43;;
34585;SDS011;20816;50.950;11.108;2022-12-18T03:47:53;0.27;;;0.27;;
34585;SDS011;20816;50.950;11.108;2022-12-18T03:49:59;0.63;;;0.63;;
34585;SDS011;20816;50.950;11.108;2022-12-18T03:52:40;0.33;;;0.33;;
34585;SDS011;20816;50.950;11.108;2022-12-18T03:55:14;0.97;;;0.73;;
34585;SDS011;20816;50.950;11.108;2022-12-18T03:57:41;0.00;;;0.00;;
34585;SDS011;20816;50.950;11.108;2022-12-18T04:00:11;0.53;;;0.20;;
34585;SDS011;20816;50.950;11.108;2022-12-18T04:03:01;0.30;;;0.30;;
34585;SDS011;20816;50.950;11.108;2022-12-18T04:05:28;0.30;;;0.30;;
34585;SDS011;20816;50.950;11.108;2022-12-18T04:07:56;0.43;;;0.43;;
34585;SDS011;20816;50.950;11.108;2022-12-18T04:10:24;0.30;;;0.30;;
34585;SDS011;20816;50.950;11.108;2022-12-18T04:12:50;0.20;;;0.20;;
34585;SDS011;20816;50.950;11.108;2022-12-18T04:15:21;0.10;;;0.10;;
34585;SDS011;20816;50.950;11.108;2022-12-18T04:17:48;2.10;;;0.67;;
34585;SDS011;20816;50.950;11.108;2022-12-18T04:20:16;0.10;;;0.10;;
34585;SDS011;20816;50.950;11.108;2022-12-18T04:22:43;0.50;;;0.50;;
34585;SDS011;20816;50.950;11.108;2022-12-18T04:25:11;0.43;;;0.43;;
34585;SDS011;20816;50.950;11.108;2022-12-18T04:27:38;0.67;;;0.67;;
34585;SDS011;20816;50.950;11.108;2022-12-18T04:30:05;1.13;;;0.70;;
34585;SDS011;20816;50.950;11.108;2022-12-18T04:32:33;0.63;;;0.63;;
34585;SDS011;20816;50.950;11.108;2022-12-18T04:35:00;1.87;;;0.97;;
34585;SDS011;20816;50.950;11.108;2022-12-18T04:37:27;1.07;;;1.03;;
34585;SDS011;20816;50.950;11.108;2022-12-18T04:39:54;0.50;;;0.50;;
34585;SDS011;20816;50.950;11.108;2022-12-18T04:42:20;0.93;;;0.60;;
34585;SDS011;20816;50.950;11.108;2022-12-18T04:44:47;0.53;;;0.53;;
34585;SDS011;20816;50.950;11.108;2022-12-18T04:47:14;1.07;;;0.50;;
34585;SDS011;20816;50.950;11.108;2022-12-18T04:49:44;0.77;;;0.77;;
34585;SDS011;20816;50.950;11.108;2022-12-18T04:52:11;0.90;;;0.90;;
34585;SDS011;20816;50.950;11.108;2022-12-18T04:54:38;0.70;;;0.70;;
34585;SDS011;20816;50.950;11.108;2022-12-18T04:57:05;0.80;;;0.53;;
34585;SDS011;20816;50.950;11.108;2022-12-18T04:59:31;0.00;;;0.00;;
34585;SDS011;20816;50.950;11.108;2022-12-18T05:01:58;1.53;;;1.10;;
34585;SDS011;20816;50.950;11.108;2022-12-18T05:04:25;0.37;;;0.37;;
34585;SDS011;20816;50.950;11.108;2022-12-18T05:06:58;0.37;;;0.27;;
34585;SDS011;20816;50.950;11.108;2022-12-18T05:09:24;0.93;;;0.93;;
34585;SDS011;20816;50.950;11.108;2022-12-18T05:11:51;2.07;;;0.73;;
34585;SDS011;20816;50.950;11.108;2022-12-18T05:14:18;1.27;;;1.20;;
34585;SDS011;20816;50.950;11.108;2022-12-18T05:16:44;2.37;;;1.77;;
34585;SDS011;20816;50.950;11.108;2022-12-18T05:19:11;5.60;;;0.73;;
34585;SDS011;20816;50.950;11.108;2022-12-18T05:21:38;0.67;;;0.67;;
34585;SDS011;20816;50.950;11.108;2022-12-18T05:24:05;0.20;;;0.20;;
34585;SDS011;20816;50.950;11.108;2022-12-18T05:26:32;0.57;;;0.17;;
34585;SDS011;20816;50.950;11.108;2022-12-18T05:28:58;0.57;;;0.57;;
34585;SDS011;20816;50.950;11.108;2022-12-18T05:31:25;0.30;;;0.30;;
34585;SDS011;20816;50.950;11.108;2022-12-18T05:33:52;0.20;;;0.20;;
34585;SDS011;20816;50.950;11.108;2022-12-18T05:36:19;1.43;;;1.43;;
34585;SDS011;20816;50.950;11.108;2022-12-18T05:38:45;0.00;;;0.00;;
34585;SDS011;20816;50.950;11.108;2022-12-18T05:41:12;0.50;;;0.50;;
34585;SDS011;20816;50.950;11.108;2022-12-18T05:43:39;4.27;;;0.60;;
34585;SDS011;20816;50.950;11.108;2022-12-18T05:46:07;3.93;;;0.90;;
34585;SDS011;20816;50.950;11.108;2022-12-18T05:48:37;0.70;;;0.70;;
34585;SDS011;20816;50.950;11.108;2022-12-18T05:51:09;3.20;;;0.50;;
34585;SDS011;20816;50.950;11.108;2022-12-18T05:53:38;0.50;;;0.50;;
34585;SDS011;20816;50.950;11.108;2022-12-18T05:56:07;1.00;;;0.90;;
34585;SDS011;20816;50.950;11.108;2022-12-18T05:58:35;0.60;;;0.50;;
34585;SDS011;20816;50.950;11.108;2022-12-18T06:01:07;0.73;;;0.57;;
34585;SDS011;20816;50.950;11.108;2022-12-18T06:03:34;1.03;;;0.47;;
34585;SDS011;20816;50.950;11.108;2022-12-18T06:06:01;1.53;;;1.20;;
34585;SDS011;20816;50.950;11.108;2022-12-18T06:08:28;0.70;;;0.40;;
34585;SDS011;20816;50.950;11.108;2022-12-18T06:10:55;0.40;;;0.13;;
34585;SDS011;20816;50.950;11.108;2022-12-18T06:13:22;0.50;;;0.50;;
34585;SDS011;20816;50.950;11.108;2022-12-18T06:15:48;0.70;;;0.70;;
34585;SDS011;20816;50.950;11.108;2022-12-18T06:18:15;0.20;;;0.20;;
34585;SDS011;20816;50.950;11.108;2022-12-18T06:20:42;1.17;;;1.07;;
34585;SDS011;20816;50.950;11.108;2022-12-18T06:23:09;5.50;;;1.13;;
34585;SDS011;20816;50.950;11.108;2022-12-18T06:25:37;0.30;;;0.30;;
34585;SDS011;20816;50.950;11.108;2022-12-18T06:28:04;0.40;;;0.40;;
34585;SDS011;20816;50.950;11.108;2022-12-18T06:30:31;4.73;;;1.00;;
34585;SDS011;20816;50.950;11.108;2022-12-18T06:32:58;1.73;;;1.20;;
34585;SDS011;20816;50.950;11.108;2022-12-18T06:35:24;0.73;;;0.47;;
34585;SDS011;20816;50.950;11.108;2022-12-18T06:37:51;1.40;;;1.27;;
34585;SDS011;20816;50.950;11.108;2022-12-18T06:40:18;0.10;;;0.10;;
34585;SDS011;20816;50.950;11.108;2022-12-18T06:42:44;0.50;;;0.50;;
34585;SDS011;20816;50.950;11.108;2022-12-18T06:45:11;0.10;;;0.10;;
34585;SDS011;20816;50.950;11.108;2022-12-18T06:47:38;0.20;;;0.20;;
34585;SDS011;20816;50.950;11.108;2022-12-18T06:50:04;2.70;;;1.27;;
34585;SDS011;20816;50.950;11.108;2022-12-18T06:52:32;0.50;;;0.50;;
34585;SDS011;20816;50.950;11.108;2022-12-18T06:54:59;0.23;;;0.23;;
34585;SDS011;20816;50.950;11.108;2022-12-18T06:57:26;0.53;;;0.53;;
34585;SDS011;20816;50.950;11.108;2022-12-18T06:59:53;0.50;;;0.50;;
34585;SDS011;20816;50.950;11.108;2022-12-18T07:02:20;0.20;;;0.20;;
34585;SDS011;20816;50.950;11.108;2022-12-18T07:04:47;1.03;;;1.03;;
34585;SDS011;20816;50.950;11.108;2022-12-18T07:07:14;0.50;;;0.50;;
34585;SDS011;20816;50.950;11.108;2022-12-18T07:09:40;1.20;;;0.83;;
34585;SDS011;20816;50.950;11.108;2022-12-18T07:12:07;1.30;;;1.30;;
34585;SDS011;20816;50.950;11.108;2022-12-18T07:14:34;1.07;;;1.07;;
34585;SDS011;20816;50.950;11.108;2022-12-18T07:17:01;0.33;;;0.33;;
34585;SDS011;20816;50.950;11.108;2022-12-18T07:19:28;0.30;;;0.30;;
34585;SDS011;20816;50.950;11.108;2022-12-18T07:21:56;1.63;;;1.53;;
34585;SDS011;20816;50.950;11.108;2022-12-18T07:24:22;1.17;;;1.13;;
34585;SDS011;20816;50.950;11.108;2022-12-18T07:26:49;0.47;;;0.47;;
34585;SDS011;20816;50.950;11.108;2022-12-18T07:29:16;0.17;;;0.17;;
34585;SDS011;20816;50.950;11.108;2022-12-18T07:31:43;0.40;;;0.40;;
34585;SDS011;20816;50.950;11.108;2022-12-18T07:34:13;0.43;;;0.43;;
34585;SDS011;20816;50.950;11.108;2022-12-18T07:36:40;2.10;;;0.77;;
34585;SDS011;20816;50.950;11.108;2022-12-18T07:39:07;2.00;;;1.03;;
34585;SDS011;20816;50.950;11.108;2022-12-18T07:41:34;0.43;;;0.43;;
34585;SDS011;20816;50.950;11.108;2022-12-18T07:44:01;2.00;;;1.67;;
34585;SDS011;20816;50.950;11.108;2022-12-18T07:46:27;1.10;;;1.10;;
34585;SDS011;20816;50.950;11.108;2022-12-18T07:48:54;0.40;;;0.40;;
34585;SDS011;20816;50.950;11.108;2022-12-18T07:51:21;1.13;;;1.13;;
34585;SDS011;20816;50.950;11.108;2022-12-18T07:53:47;0.53;;;0.53;;
34585;SDS011;20816;50.950;11.108;2022-12-18T07:56:17;1.17;;;1.17;;
34585;SDS011;20816;50.950;11.108;2022-12-18T07:58:55;1.27;;;1.17;;
34585;SDS011;20816;50.950;11.108;2022-12-18T08:01:22;3.83;;;2.20;;
34585;SDS011;20816;50.950;11.108;2022-12-18T08:03:49;2.23;;;2.03;;
34585;SDS011;20816;50.950;11.108;2022-12-18T08:06:17;1.57;;;1.47;;
34585;SDS011;20816;50.950;11.108;2022-12-18T08:08:48;0.57;;;0.57;;
34585;SDS011;20816;50.950;11.108;2022-12-18T08:11:15;1.87;;;1.77;;
34585;SDS011;20816;50.950;11.108;2022-12-18T08:13:42;3.10;;;1.50;;
34585;SDS011;20816;50.950;11.108;2022-12-18T08:16:09;0.83;;;0.53;;
34585;SDS011;20816;50.950;11.108;2022-12-18T08:18:36;2.13;;;1.83;;
34585;SDS011;20816;50.950;11.108;2022-12-18T08:23:36;1.33;;;1.27;;
34585;SDS011;20816;50.950;11.108;2022-12-18T08:26:08;4.17;;;2.43;;
34585;SDS011;20816;50.950;11.108;2022-12-18T08:28:35;14.90;;;4.83;;
34585;SDS011;20816;50.950;11.108;2022-12-18T08:31:02;3.43;;;2.83;;
34585;SDS011;20816;50.950;11.108;2022-12-18T08:33:28;4.20;;;3.60;;
34585;SDS011;20816;50.950;11.108;2022-12-18T08:35:55;3.63;;;2.80;;
34585;SDS011;20816;50.950;11.108;2022-12-18T08:38:22;3.07;;;1.53;;
34585;SDS011;20816;50.950;11.108;2022-12-18T08:40:49;2.97;;;1.90;;
34585;SDS011;20816;50.950;11.108;2022-12-18T08:43:16;1.63;;;1.13;;
34585;SDS011;20816;50.950;11.108;2022-12-18T08:46:01;2.20;;;1.70;;
34585;SDS011;20816;50.950;11.108;2022-12-18T08:48:27;1.20;;;1.20;;
34585;SDS011;20816;50.950;11.108;2022-12-18T08:50:58;5.53;;;2.63;;
34585;SDS011;20816;50.950;11.108;2022-12-18T08:53:26;1.53;;;1.00;;
34585;SDS011;20816;50.950;11.108;2022-12-18T08:56:01;1.87;;;1.67;;
34585;SDS011;20816;50.950;11.108;2022-12-18T08:58:29;6.60;;;2.63;;
34585;SDS011;20816;50.950;11.108;2022-12-18T09:00:59;1.57;;;1.47;;
34585;SDS011;20816;50.950;11.108;2022-12-18T09:03:28;0.90;;;0.77;;
34585;SDS011;20816;50.950;11.108;2022-12-18T09:05:55;1.03;;;0.93;;
34585;SDS011;20816;50.950;11.108;2022-12-18T09:08:22;1.47;;;1.37;;
34585;SDS011;20816;50.950;11.108;2022-12-18T09:10:49;5.57;;;3.73;;
34585;SDS011;20816;50.950;11.108;2022-12-18T09:13:16;3.07;;;2.77;;
34585;SDS011;20816;50.950;11.108;2022-12-18T09:15:44;7.70;;;5.20;;
34585;SDS011;20816;50.950;11.108;2022-12-18T09:18:16;4.57;;;4.17;;
34585;SDS011;20816;50.950;11.108;2022-12-18T09:20:44;4.67;;;4.23;;
34585;SDS011;20816;50.950;11.108;2022-12-18T09:23:11;4.03;;;3.63;;
34585;SDS011;20816;50.950;11.108;2022-12-18T09:25:38;7.70;;;4.27;;
34585;SDS011;20816;50.950;11.108;2022-12-18T09:28:06;5.47;;;5.03;;
34585;SDS011;20816;50.950;11.108;2022-12-18T09:30:39;13.83;;;4.90;;
34585;SDS011;20816;50.950;11.108;2022-12-18T09:33:07;6.07;;;4.77;;
34585;SDS011;20816;50.950;11.108;2022-12-18T09:35:37;10.17;;;5.37;;
34585;SDS011;20816;50.950;11.108;2022-12-18T09:38:05;8.10;;;5.17;;
34585;SDS011;20816;50.950;11.108;2022-12-18T09:40:34;6.43;;;5.27;;
34585;SDS011;20816;50.950;11.108;2022-12-18T09:43:03;7.77;;;4.77;;
34585;SDS011;20816;50.950;11.108;2022-12-18T09:45:38;8.97;;;4.53;;
34585;SDS011;20816;50.950;11.108;2022-12-18T09:48:15;7.07;;;4.67;;
34585;SDS011;20816;50.950;11.108;2022-12-18T09:50:47;6.53;;;4.07;;
34585;SDS011;20816;50.950;11.108;2022-12-18T09:53:18;11.77;;;5.73;;
34585;SDS011;20816;50.950;11.108;2022-12-18T09:55:48;5.83;;;5.03;;
34585;SDS011;20816;50.950;11.108;2022-12-18T09:58:20;7.37;;;4.97;;
34585;SDS011;20816;50.950;11.108;2022-12-18T10:00:58;7.10;;;4.60;;
34585;SDS011;20816;50.950;11.108;2022-12-18T10:03:25;8.20;;;5.10;;
34585;SDS011;20816;50.950;11.108;2022-12-18T10:06:02;7.10;;;4.63;;
34585;SDS011;20816;50.950;11.108;2022-12-18T10:08:45;4.17;;;3.67;;
34585;SDS011;20816;50.950;11.108;2022-12-18T10:20:13;13.83;;;5.13;;
34585;SDS011;20816;50.950;11.108;2022-12-18T10:28:10;7.13;;;4.07;;
34585;SDS011;20816;50.950;11.108;2022-12-18T10:30:40;12.17;;;6.20;;
34585;SDS011;20816;50.950;11.108;2022-12-18T10:33:10;10.33;;;6.07;;
34585;SDS011;20816;50.950;11.108;2022-12-18T10:35:41;10.30;;;5.60;;
34585;SDS011;20816;50.950;11.108;2022-12-18T10:40:51;10.43;;;6.67;;
34585;SDS011;20816;50.950;11.108;2022-12-18T10:43:29;7.67;;;5.97;;
34585;SDS011;20816;50.950;11.108;2022-12-18T10:48:36;8.50;;;4.40;;
34585;SDS011;20816;50.950;11.108;2022-12-18T10:51:23;7.93;;;4.97;;
34585;SDS011;20816;50.950;11.108;2022-12-18T10:53:57;12.73;;;5.67;;
34585;SDS011;20816;50.950;11.108;2022-12-18T10:56:28;11.13;;;6.50;;
34585;SDS011;20816;50.950;11.108;2022-12-18T10:59:00;13.00;;;4.63;;
34585;SDS011;20816;50.950;11.108;2022-12-18T11:01:54;11.67;;;3.90;;
34585;SDS011;20816;50.950;11.108;2022-12-18T11:04:27;6.77;;;4.67;;
34585;SDS011;20816;50.950;11.108;2022-12-18T11:07:02;7.50;;;5.63;;
34585;SDS011;20816;50.950;11.108;2022-12-18T11:09:34;7.73;;;3.73;;
34585;SDS011;20816;50.950;11.108;2022-12-18T11:14:48;7.20;;;3.33;;
34585;SDS011;20816;50.950;11.108;2022-12-18T11:17:21;8.63;;;4.10;;
34585;SDS011;20816;50.950;11.108;2022-12-18T11:20:02;6.90;;;4.73;;
34585;SDS011;20816;50.950;11.108;2022-12-18T11:22:33;7.00;;;3.53;;
34585;SDS011;20816;50.950;11.108;2022-12-18T11:25:06;9.20;;;5.50;;
34585;SDS011;20816;50.950;11.108;2022-12-18T11:27:59;5.57;;;3.60;;
34585;SDS011;20816;50.950;11.108;2022-12-18T11:30:30;4.47;;;3.20;;
34585;SDS011;20816;50.950;11.108;2022-12-18T11:40:53;5.77;;;4.10;;
34585;SDS011;20816;50.950;11.108;2022-12-18T11:46:19;4.23;;;3.83;;
34585;SDS011;20816;50.950;11.108;2022-12-18T11:48:56;4.27;;;3.23;;
34585;SDS011;20816;50.950;11.108;2022-12-18T11:51:32;7.10;;;4.50;;
34585;SDS011;20816;50.950;11.108;2022-12-18T11:54:09;6.67;;;3.33;;
34585;SDS011;20816;50.950;11.108;2022-12-18T11:56:44;5.13;;;4.70;;
34585;SDS011;20816;50.950;11.108;2022-12-18T12:03:18;4.40;;;2.73;;
34585;SDS011;20816;50.950;11.108;2022-12-18T12:11:23;8.33;;;4.87;;
34585;SDS011;20816;50.950;11.108;2022-12-18T12:14:14;3.07;;;2.33;;
34585;SDS011;20816;50.950;11.108;2022-12-18T12:16:58;5.43;;;4.07;;
34585;SDS011;20816;50.950;11.108;2022-12-18T12:19:49;6.63;;;4.67;;
34585;SDS011;20816;50.950;11.108;2022-12-18T12:22:42;7.43;;;5.87;;
34585;SDS011;20816;50.950;11.108;2022-12-18T12:25:48;5.03;;;2.87;;
34585;SDS011;20816;50.950;11.108;2022-12-18T12:39:42;6.17;;;4.90;;
34585;SDS011;20816;50.950;11.108;2022-12-18T12:42:14;6.57;;;4.07;;
34585;SDS011;20816;50.950;11.108;2022-12-18T12:45:05;5.93;;;4.83;;
34585;SDS011;20816;50.950;11.108;2022-12-18T12:47:42;8.27;;;5.13;;
34585;SDS011;20816;50.950;11.108;2022-12-18T12:50:13;12.43;;;6.93;;
34585;SDS011;20816;50.950;11.108;2022-12-18T12:52:44;8.60;;;4.87;;
34585;SDS011;20816;50.950;11.108;2022-12-18T12:55:23;5.97;;;3.70;;
34585;SDS011;20816;50.950;11.108;2022-12-18T13:00:36;8.73;;;5.17;;
34585;SDS011;20816;50.950;11.108;2022-12-18T13:06:33;6.33;;;4.10;;
34585;SDS011;20816;50.950;11.108;2022-12-18T13:09:10;4.77;;;3.30;;
34585;SDS011;20816;50.950;11.108;2022-12-18T13:11:38;10.77;;;4.23;;
34585;SDS011;20816;50.950;11.108;2022-12-18T13:19:51;8.83;;;4.50;;
34585;SDS011;20816;50.950;11.108;2022-12-18T13:40:59;6.50;;;5.43;;
34585;SDS011;20816;50.950;11.108;2022-12-18T13:43:32;7.73;;;3.50;;
34585;SDS011;20816;50.950;11.108;2022-12-18T13:48:47;5.93;;;4.63;;
34585;SDS011;20816;50.950;11.108;2022-12-18T13:51:17;4.87;;;3.70;;
34585;SDS011;20816;50.950;11.108;2022-12-18T13:53:51;10.37;;;4.33;;
34585;SDS011;20816;50.950;11.108;2022-12-18T13:56:24;5.77;;;3.70;;
34585;SDS011;20816;50.950;11.108;2022-12-18T14:04:23;5.70;;;2.93;;
34585;SDS011;20816;50.950;11.108;2022-12-18T14:07:01;19.97;;;7.13;;
34585;SDS011;20816;50.950;11.108;2022-12-18T14:09:39;9.67;;;4.57;;
34585;SDS011;20816;50.950;11.108;2022-12-18T14:12:14;4.90;;;3.40;;
34585;SDS011;20816;50.950;11.108;2022-12-18T14:15:32;7.47;;;5.77;;
34585;SDS011;20816;50.950;11.108;2022-12-18T14:20:51;6.03;;;3.90;;
34585;SDS011;20816;50.950;11.108;2022-12-18T14:23:32;5.00;;;3.83;;
34585;SDS011;20816;50.950;11.108;2022-12-18T14:25:59;6.67;;;4.17;;
34585;SDS011;20816;50.950;11.108;2022-12-18T14:28:31;7.57;;;4.23;;
34585;SDS011;20816;50.950;11.108;2022-12-18T14:30:58;13.77;;;5.57;;
34585;SDS011;20816;50.950;11.108;2022-12-18T14:33:26;4.97;;;3.07;;
34585;SDS011;20816;50.950;11.108;2022-12-18T14:35:57;5.63;;;3.83;;
34585;SDS011;20816;50.950;11.108;2022-12-18T14:41:05;5.50;;;4.10;;
34585;SDS011;20816;50.950;11.108;2022-12-18T14:43:38;6.10;;;2.67;;
34585;SDS011;20816;50.950;11.108;2022-12-18T14:49:17;9.70;;;5.73;;
34585;SDS011;20816;50.950;11.108;2022-12-18T14:51:53;5.20;;;4.60;;
34585;SDS011;20816;50.950;11.108;2022-12-18T14:54:23;6.90;;;4.27;;
34585;SDS011;20816;50.950;11.108;2022-12-18T14:56:53;10.30;;;3.27;;
34585;SDS011;20816;50.950;11.108;2022-12-18T14:59:26;7.33;;;4.67;;
34585;SDS011;20816;50.950;11.108;2022-12-18T15:04:35;5.30;;;3.97;;
34585;SDS011;20816;50.950;11.108;2022-12-18T15:07:17;10.67;;;4.47;;
34585;SDS011;20816;50.950;11.108;2022-12-18T15:10:10;5.70;;;2.80;;
34585;SDS011;20816;50.950;11.108;2022-12-18T15:12:42;6.37;;;4.10;;
34585;SDS011;20816;50.950;11.108;2022-12-18T15:18:00;3.50;;;3.20;;
34585;SDS011;20816;50.950;11.108;2022-12-18T15:20:32;4.27;;;2.67;;
34585;SDS011;20816;50.950;11.108;2022-12-18T15:23:17;7.27;;;4.97;;
34585;SDS011;20816;50.950;11.108;2022-12-18T15:25:44;3.77;;;3.47;;
34585;SDS011;20816;50.950;11.108;2022-12-18T15:28:33;8.43;;;2.47;;
34585;SDS011;20816;50.950;11.108;2022-12-18T15:36:13;4.17;;;3.27;;
34585;SDS011;20816;50.950;11.108;2022-12-18T15:38:46;5.47;;;4.97;;
34585;SDS011;20816;50.950;11.108;2022-12-18T15:41:15;5.73;;;4.57;;
34585;SDS011;20816;50.950;11.108;2022-12-18T15:43:51;3.07;;;2.13;;
34585;SDS011;20816;50.950;11.108;2022-12-18T15:46:22;6.40;;;2.97;;
34585;SDS011;20816;50.950;11.108;2022-12-18T15:48:53;9.50;;;4.13;;
34585;SDS011;20816;50.950;11.108;2022-12-18T15:51:28;3.87;;;3.53;;
34585;SDS011;20816;50.950;11.108;2022-12-18T15:53:59;3.80;;;3.23;;
34585;SDS011;20816;50.950;11.108;2022-12-18T15:56:27;7.23;;;4.57;;
34585;SDS011;20816;50.950;11.108;2022-12-18T15:59:17;4.07;;;3.60;;
34585;SDS011;20816;50.950;11.108;2022-12-18T16:01:46;7.77;;;4.23;;
34585;SDS011;20816;50.950;11.108;2022-12-18T16:04:16;3.63;;;3.30;;
34585;SDS011;20816;50.950;11.108;2022-12-18T16:06:46;4.37;;;3.87;;
34585;SDS011;20816;50.950;11.108;2022-12-18T16:09:33;6.10;;;3.70;;
34585;SDS011;20816;50.950;11.108;2022-12-18T16:12:00;9.40;;;3.80;;
34585;SDS011;20816;50.950;11.108;2022-12-18T16:14:27;13.53;;;5.20;;
34585;SDS011;20816;50.950;11.108;2022-12-18T16:16:56;6.37;;;3.67;;
34585;SDS011;20816;50.950;11.108;2022-12-18T16:19:25;8.37;;;4.90;;
34585;SDS011;20816;50.950;11.108;2022-12-18T16:21:52;9.77;;;3.93;;
34585;SDS011;20816;50.950;11.108;2022-12-18T16:24:22;6.57;;;4.73;;
34585;SDS011;20816;50.950;11.108;2022-12-18T16:26:51;3.87;;;2.63;;
34585;SDS011;20816;50.950;11.108;2022-12-18T16:29:19;6.03;;;3.77;;
34585;SDS011;20816;50.950;11.108;2022-12-18T16:31:51;5.60;;;3.77;;
34585;SDS011;20816;50.950;11.108;2022-12-18T16:34:22;7.33;;;3.73;;
34585;SDS011;20816;50.950;11.108;2022-12-18T16:36:54;4.43;;;4.00;;
34585;SDS011;20816;50.950;11.108;2022-12-18T16:39:30;7.83;;;3.67;;
34585;SDS011;20816;50.950;11.108;2022-12-18T16:41:58;12.97;;;5.10;;
34585;SDS011;20816;50.950;11.108;2022-12-18T16:44:27;10.47;;;4.83;;
34585;SDS011;20816;50.950;11.108;2022-12-18T16:46:53;8.27;;;4.90;;
34585;SDS011;20816;50.950;11.108;2022-12-18T16:49:20;4.07;;;3.00;;
34585;SDS011;20816;50.950;11.108;2022-12-18T16:51:47;6.03;;;3.73;;
34585;SDS011;20816;50.950;11.108;2022-12-18T16:54:14;11.13;;;6.30;;
34585;SDS011;20816;50.950;11.108;2022-12-18T16:56:45;7.50;;;3.70;;
34585;SDS011;20816;50.950;11.108;2022-12-18T16:59:15;4.57;;;4.10;;
34585;SDS011;20816;50.950;11.108;2022-12-18T17:01:42;6.80;;;5.23;;
34585;SDS011;20816;50.950;11.108;2022-12-18T17:04:09;6.07;;;3.40;;
34585;SDS011;20816;50.950;11.108;2022-12-18T17:06:40;11.40;;;4.37;;
34585;SDS011;20816;50.950;11.108;2022-12-18T17:09:10;11.00;;;6.47;;
34585;SDS011;20816;50.950;11.108;2022-12-18T17:11:40;11.67;;;3.23;;
34585;SDS011;20816;50.950;11.108;2022-12-18T17:14:08;7.40;;;5.30;;
34585;SDS011;20816;50.950;11.108;2022-12-18T17:16:36;7.00;;;3.90;;
34585;SDS011;20816;50.950;11.108;2022-12-18T17:19:05;6.17;;;4.10;;
34585;SDS011;20816;50.950;11.108;2022-12-18T17:21:38;6.50;;;3.53;;
34585;SDS011;20816;50.950;11.108;2022-12-18T17:24:06;5.40;;;3.77;;
34585;SDS011;20816;50.950;11.108;2022-12-18T17:26:33;6.57;;;4.47;;
34585;SDS011;20816;50.950;11.108;2022-12-18T17:28:59;8.57;;;5.93;;